sensor_id;sensor_type;location;lat;lon;timestamp;P1;durP1;ratioP1;P2;durP2;ratioP2
44048;SDS011;29717;47.028;15.470;2023-05-16T00:01:25;1.80;;;1.70;;
44048;SDS011;29717;47.028;15.470;2023-05-16T00:03:55;4.10;;;2.13;;
44048;SDS011;29717;47.028;15.470;2023-05-16T00:06:22;1.80;;;1.70;;
44048;SDS011;29717;47.028;15.470;2023-05-16T00:08:49;2.05;;;1.67;;
44048;SDS011;29717;47.028;15.470;2023-05-16T00:11:16;2.95;;;1.73;;
44048;SDS011;29717;47.028;15.470;2023-05-16T00:13:43;1.92;;;1.55;;
44048;SDS011;29717;47.028;15.470;2023-05-16T00:16:10;2.00;;;1.80;;
44048;SDS011;29717;47.028;15.470;2023-05-16T00:18:39;2.05;;;1.85;;
44048;SDS011;29717;47.028;15.470;2023-05-16T00:21:07;3.25;;;1.70;;
44048;SDS011;29717;47.028;15.470;2023-05-16T00:23:34;3.00;;;1.77;;
44048;SDS011;29717;47.028;15.470;2023-05-16T00:26:01;2.05;;;1.90;;
44048;SDS011;29717;47.028;15.470;2023-05-16T00:28:27;4.28;;;2.10;;
44048;SDS011;29717;47.028;15.470;2023-05-16T00:30:54;2.97;;;2.05;;
44048;SDS011;29717;47.028;15.470;2023-05-16T00:33:21;1.95;;;1.80;;
44048;SDS011;29717;47.028;15.470;2023-05-16T00:35:48;2.33;;;1.90;;
44048;SDS011;29717;47.028;15.470;2023-05-16T00:38:23;4.25;;;2.05;;
44048;SDS011;29717;47.028;15.470;2023-05-16T00:40:50;2.00;;;1.90;;
44048;SDS011;29717;47.028;15.470;2023-05-16T00:43:17;2.03;;;1.67;;
44048;SDS011;29717;47.028;15.470;2023-05-16T00:45:43;4.97;;;2.10;;
44048;SDS011;29717;47.028;15.470;2023-05-16T00:48:11;3.00;;;2.00;;
44048;SDS011;29717;47.028;15.470;2023-05-16T00:50:39;3.28;;;2.33;;
44048;SDS011;29717;47.028;15.470;2023-05-16T00:53:06;4.57;;;2.38;;
44048;SDS011;29717;47.028;15.470;2023-05-16T00:55:35;3.67;;;2.05;;
44048;SDS011;29717;47.028;15.470;2023-05-16T00:58:02;2.88;;;1.90;;
44048;SDS011;29717;47.028;15.470;2023-05-16T01:00:30;2.40;;;2.20;;
44048;SDS011;29717;47.028;15.470;2023-05-16T01:02:57;3.90;;;2.13;;
44048;SDS011;29717;47.028;15.470;2023-05-16T01:05:24;2.55;;;2.10;;
44048;SDS011;29717;47.028;15.470;2023-05-16T01:07:51;3.17;;;2.10;;
44048;SDS011;29717;47.028;15.470;2023-05-16T01:10:18;2.10;;;1.88;;
44048;SDS011;29717;47.028;15.470;2023-05-16T01:12:56;2.53;;;1.90;;
44048;SDS011;29717;47.028;15.470;2023-05-16T01:15:27;2.63;;;2.30;;
44048;SDS011;29717;47.028;15.470;2023-05-16T01:17:56;3.35;;;2.25;;
44048;SDS011;29717;47.028;15.470;2023-05-16T01:20:29;2.30;;;2.08;;
44048;SDS011;29717;47.028;15.470;2023-05-16T01:23:11;2.45;;;2.05;;
44048;SDS011;29717;47.028;15.470;2023-05-16T01:25:45;2.35;;;2.15;;
44048;SDS011;29717;47.028;15.470;2023-05-16T01:28:21;3.08;;;2.20;;
44048;SDS011;29717;47.028;15.470;2023-05-16T01:30:49;3.40;;;1.95;;
44048;SDS011;29717;47.028;15.470;2023-05-16T01:33:16;2.22;;;1.90;;
44048;SDS011;29717;47.028;15.470;2023-05-16T01:35:50;2.75;;;2.30;;
44048;SDS011;29717;47.028;15.470;2023-05-16T01:38:22;2.00;;;1.80;;
44048;SDS011;29717;47.028;15.470;2023-05-16T01:40:52;2.83;;;2.55;;
44048;SDS011;29717;47.028;15.470;2023-05-16T01:43:23;4.50;;;2.60;;
44048;SDS011;29717;47.028;15.470;2023-05-16T01:45:52;2.50;;;2.30;;
44048;SDS011;29717;47.028;15.470;2023-05-16T01:48:21;2.20;;;2.00;;
44048;SDS011;29717;47.028;15.470;2023-05-16T01:50:55;4.68;;;2.53;;
44048;SDS011;29717;47.028;15.470;2023-05-16T01:53:26;4.28;;;2.40;;
44048;SDS011;29717;47.028;15.470;2023-05-16T01:55:55;5.55;;;2.38;;
44048;SDS011;29717;47.028;15.470;2023-05-16T01:58:24;3.28;;;2.35;;
44048;SDS011;29717;47.028;15.470;2023-05-16T02:00:51;3.38;;;2.00;;
44048;SDS011;29717;47.028;15.470;2023-05-16T02:03:18;6.13;;;2.22;;
44048;SDS011;29717;47.028;15.470;2023-05-16T02:05:45;2.72;;;2.33;;
44048;SDS011;29717;47.028;15.470;2023-05-16T02:08:12;2.90;;;2.45;;
44048;SDS011;29717;47.028;15.470;2023-05-16T02:10:39;2.60;;;2.20;;
44048;SDS011;29717;47.028;15.470;2023-05-16T02:13:06;3.25;;;2.40;;
44048;SDS011;29717;47.028;15.470;2023-05-16T02:15:35;2.83;;;2.28;;
44048;SDS011;29717;47.028;15.470;2023-05-16T02:18:02;2.60;;;2.13;;
44048;SDS011;29717;47.028;15.470;2023-05-16T02:20:29;2.67;;;2.45;;
44048;SDS011;29717;47.028;15.470;2023-05-16T02:22:56;2.92;;;2.63;;
44048;SDS011;29717;47.028;15.470;2023-05-16T02:25:23;4.43;;;2.50;;
44048;SDS011;29717;47.028;15.470;2023-05-16T02:27:50;3.25;;;2.30;;
44048;SDS011;29717;47.028;15.470;2023-05-16T02:30:22;2.95;;;2.35;;
44048;SDS011;29717;47.028;15.470;2023-05-16T02:32:51;2.53;;;2.15;;
44048;SDS011;29717;47.028;15.470;2023-05-16T02:35:18;2.75;;;2.55;;
44048;SDS011;29717;47.028;15.470;2023-05-16T02:37:45;3.35;;;2.33;;
44048;SDS011;29717;47.028;15.470;2023-05-16T02:40:12;4.10;;;2.80;;
44048;SDS011;29717;47.028;15.470;2023-05-16T02:42:39;2.80;;;2.42;;
44048;SDS011;29717;47.028;15.470;2023-05-16T02:45:06;2.72;;;2.53;;
44048;SDS011;29717;47.028;15.470;2023-05-16T02:47:33;3.15;;;2.63;;
44048;SDS011;29717;47.028;15.470;2023-05-16T02:50:01;2.60;;;2.40;;
44048;SDS011;29717;47.028;15.470;2023-05-16T02:52:28;4.22;;;2.50;;
44048;SDS011;29717;47.028;15.470;2023-05-16T02:54:55;2.45;;;2.25;;
44048;SDS011;29717;47.028;15.470;2023-05-16T02:57:22;4.47;;;2.50;;
44048;SDS011;29717;47.028;15.470;2023-05-16T02:59:49;4.57;;;2.63;;
44048;SDS011;29717;47.028;15.470;2023-05-16T03:02:19;2.85;;;2.45;;
44048;SDS011;29717;47.028;15.470;2023-05-16T03:05:01;4.28;;;2.70;;
44048;SDS011;29717;47.028;15.470;2023-05-16T03:07:35;3.53;;;2.70;;
44048;SDS011;29717;47.028;15.470;2023-05-16T03:10:08;3.45;;;2.80;;
44048;SDS011;29717;47.028;15.470;2023-05-16T03:12:37;4.30;;;2.75;;
44048;SDS011;29717;47.028;15.470;2023-05-16T03:15:12;3.95;;;2.65;;
44048;SDS011;29717;47.028;15.470;2023-05-16T03:17:40;2.70;;;2.50;;
44048;SDS011;29717;47.028;15.470;2023-05-16T03:20:18;4.07;;;2.80;;
44048;SDS011;29717;47.028;15.470;2023-05-16T03:22:52;4.13;;;2.85;;
44048;SDS011;29717;47.028;15.470;2023-05-16T03:25:23;4.80;;;4.07;;
44048;SDS011;29717;47.028;15.470;2023-05-16T03:27:51;5.07;;;3.55;;
44048;SDS011;29717;47.028;15.470;2023-05-16T03:30:23;3.47;;;3.03;;
44048;SDS011;29717;47.028;15.470;2023-05-16T03:33:04;3.97;;;3.58;;
44048;SDS011;29717;47.028;15.470;2023-05-16T03:35:38;5.30;;;3.08;;
44048;SDS011;29717;47.028;15.470;2023-05-16T03:38:08;6.20;;;2.97;;
44048;SDS011;29717;47.028;15.470;2023-05-16T03:40:36;3.05;;;2.75;;
44048;SDS011;29717;47.028;15.470;2023-05-16T03:43:06;3.10;;;2.55;;
44048;SDS011;29717;47.028;15.470;2023-05-16T03:45:41;2.60;;;2.33;;
44048;SDS011;29717;47.028;15.470;2023-05-16T03:48:12;4.03;;;2.65;;
44048;SDS011;29717;47.028;15.470;2023-05-16T03:50:44;4.30;;;2.63;;
44048;SDS011;29717;47.028;15.470;2023-05-16T03:55:43;10.30;;;3.35;;
44048;SDS011;29717;47.028;15.470;2023-05-16T03:58:15;2.92;;;2.58;;
44048;SDS011;29717;47.028;15.470;2023-05-16T04:00:51;3.15;;;2.70;;
44048;SDS011;29717;47.028;15.470;2023-05-16T04:03:32;4.57;;;2.90;;
44048;SDS011;29717;47.028;15.470;2023-05-16T04:06:05;3.25;;;2.90;;
44048;SDS011;29717;47.028;15.470;2023-05-16T04:08:38;4.43;;;2.75;;
44048;SDS011;29717;47.028;15.470;2023-05-16T04:11:14;5.90;;;3.08;;
44048;SDS011;29717;47.028;15.470;2023-05-16T04:13:49;5.53;;;2.90;;
44048;SDS011;29717;47.028;15.470;2023-05-16T04:16:18;2.88;;;2.63;;
44048;SDS011;29717;47.028;15.470;2023-05-16T04:18:50;3.45;;;3.00;;
44048;SDS011;29717;47.028;15.470;2023-05-16T04:21:30;7.07;;;2.92;;
44048;SDS011;29717;47.028;15.470;2023-05-16T04:24:11;3.42;;;2.75;;
44048;SDS011;29717;47.028;15.470;2023-05-16T04:26:45;3.47;;;2.75;;
44048;SDS011;29717;47.028;15.470;2023-05-16T04:29:18;3.92;;;2.33;;
44048;SDS011;29717;47.028;15.470;2023-05-16T04:32:13;2.33;;;2.13;;
44048;SDS011;29717;47.028;15.470;2023-05-16T04:35:04;3.17;;;2.38;;
44048;SDS011;29717;47.028;15.470;2023-05-16T04:37:48;2.65;;;2.28;;
44048;SDS011;29717;47.028;15.470;2023-05-16T04:40:38;2.53;;;2.20;;
44048;SDS011;29717;47.028;15.470;2023-05-16T04:43:20;2.63;;;2.28;;
44048;SDS011;29717;47.028;15.470;2023-05-16T04:45:52;3.50;;;2.10;;
44048;SDS011;29717;47.028;15.470;2023-05-16T04:48:25;7.53;;;2.70;;
44048;SDS011;29717;47.028;15.470;2023-05-16T04:50:52;4.60;;;2.95;;
44048;SDS011;29717;47.028;15.470;2023-05-16T04:53:23;5.55;;;3.40;;
44048;SDS011;29717;47.028;15.470;2023-05-16T04:55:51;6.38;;;3.63;;
44048;SDS011;29717;47.028;15.470;2023-05-16T04:58:18;5.93;;;3.78;;
44048;SDS011;29717;47.028;15.470;2023-05-16T05:00:48;4.88;;;3.55;;
44048;SDS011;29717;47.028;15.470;2023-05-16T05:03:15;8.10;;;3.83;;
44048;SDS011;29717;47.028;15.470;2023-05-16T05:05:42;6.55;;;3.45;;
44048;SDS011;29717;47.028;15.470;2023-05-16T05:08:13;6.43;;;2.95;;
44048;SDS011;29717;47.028;15.470;2023-05-16T05:10:44;5.57;;;2.90;;
44048;SDS011;29717;47.028;15.470;2023-05-16T05:13:12;8.95;;;3.35;;
44048;SDS011;29717;47.028;15.470;2023-05-16T05:15:39;4.15;;;3.47;;
44048;SDS011;29717;47.028;15.470;2023-05-16T05:18:08;4.75;;;3.17;;
44048;SDS011;29717;47.028;15.470;2023-05-16T05:20:39;5.53;;;3.35;;
44048;SDS011;29717;47.028;15.470;2023-05-16T05:23:08;3.97;;;3.22;;
44048;SDS011;29717;47.028;15.470;2023-05-16T05:28:07;4.20;;;3.33;;
44048;SDS011;29717;47.028;15.470;2023-05-16T05:30:36;5.10;;;4.57;;
44048;SDS011;29717;47.028;15.470;2023-05-16T05:33:04;5.88;;;4.65;;
44048;SDS011;29717;47.028;15.470;2023-05-16T05:35:32;6.25;;;3.88;;
44048;SDS011;29717;47.028;15.470;2023-05-16T05:37:59;5.43;;;4.38;;
44048;SDS011;29717;47.028;15.470;2023-05-16T05:40:29;5.15;;;4.30;;
44048;SDS011;29717;47.028;15.470;2023-05-16T05:42:56;7.72;;;4.78;;
44048;SDS011;29717;47.028;15.470;2023-05-16T05:45:24;5.93;;;4.53;;
44048;SDS011;29717;47.028;15.470;2023-05-16T05:47:51;8.93;;;4.70;;
44048;SDS011;29717;47.028;15.470;2023-05-16T05:50:18;7.32;;;4.45;;
44048;SDS011;29717;47.028;15.470;2023-05-16T05:52:46;8.15;;;4.38;;
44048;SDS011;29717;47.028;15.470;2023-05-16T05:55:13;9.57;;;4.30;;
44048;SDS011;29717;47.028;15.470;2023-05-16T05:57:40;5.88;;;4.30;;
44048;SDS011;29717;47.028;15.470;2023-05-16T06:00:07;8.35;;;4.10;;
44048;SDS011;29717;47.028;15.470;2023-05-16T06:02:36;5.97;;;3.72;;
44048;SDS011;29717;47.028;15.470;2023-05-16T06:05:02;4.55;;;3.50;;
44048;SDS011;29717;47.028;15.470;2023-05-16T06:07:30;4.00;;;3.38;;
44048;SDS011;29717;47.028;15.470;2023-05-16T06:09:56;7.95;;;3.35;;
44048;SDS011;29717;47.028;15.470;2023-05-16T06:12:23;6.22;;;3.45;;
44048;SDS011;29717;47.028;15.470;2023-05-16T06:14:50;4.63;;;3.42;;
44048;SDS011;29717;47.028;15.470;2023-05-16T06:17:17;6.30;;;3.47;;
44048;SDS011;29717;47.028;15.470;2023-05-16T06:19:46;4.20;;;3.55;;
44048;SDS011;29717;47.028;15.470;2023-05-16T06:22:12;4.50;;;3.75;;
44048;SDS011;29717;47.028;15.470;2023-05-16T06:24:39;3.97;;;3.45;;
44048;SDS011;29717;47.028;15.470;2023-05-16T06:27:06;8.07;;;4.20;;
44048;SDS011;29717;47.028;15.470;2023-05-16T06:29:33;5.07;;;3.50;;
44048;SDS011;29717;47.028;15.470;2023-05-16T06:31:59;7.75;;;4.70;;
44048;SDS011;29717;47.028;15.470;2023-05-16T06:34:26;12.00;;;4.93;;
44048;SDS011;29717;47.028;15.470;2023-05-16T06:36:55;10.75;;;5.72;;
44048;SDS011;29717;47.028;15.470;2023-05-16T06:39:22;11.25;;;6.13;;
44048;SDS011;29717;47.028;15.470;2023-05-16T06:41:49;7.53;;;5.30;;
44048;SDS011;29717;47.028;15.470;2023-05-16T06:44:16;11.90;;;4.97;;
44048;SDS011;29717;47.028;15.470;2023-05-16T06:46:46;8.50;;;4.90;;
44048;SDS011;29717;47.028;15.470;2023-05-16T06:49:13;7.82;;;4.90;;
44048;SDS011;29717;47.028;15.470;2023-05-16T06:51:39;7.70;;;4.97;;
44048;SDS011;29717;47.028;15.470;2023-05-16T06:54:08;8.32;;;5.10;;
44048;SDS011;29717;47.028;15.470;2023-05-16T06:56:35;7.85;;;5.47;;
44048;SDS011;29717;47.028;15.470;2023-05-16T06:59:01;9.25;;;5.45;;
44048;SDS011;29717;47.028;15.470;2023-05-16T07:01:28;7.82;;;5.03;;
44048;SDS011;29717;47.028;15.470;2023-05-16T07:03:55;6.93;;;4.65;;
44048;SDS011;29717;47.028;15.470;2023-05-16T07:06:22;7.20;;;5.00;;
44048;SDS011;29717;47.028;15.470;2023-05-16T07:08:49;5.90;;;5.05;;
44048;SDS011;29717;47.028;15.470;2023-05-16T07:11:17;9.13;;;5.15;;
44048;SDS011;29717;47.028;15.470;2023-05-16T07:13:44;5.72;;;4.50;;
44048;SDS011;29717;47.028;15.470;2023-05-16T07:16:11;8.65;;;4.80;;
44048;SDS011;29717;47.028;15.470;2023-05-16T07:18:39;6.05;;;5.22;;
44048;SDS011;29717;47.028;15.470;2023-05-16T07:21:08;7.07;;;5.45;;
44048;SDS011;29717;47.028;15.470;2023-05-16T07:23:35;7.07;;;4.35;;
44048;SDS011;29717;47.028;15.470;2023-05-16T07:26:02;7.07;;;4.90;;
44048;SDS011;29717;47.028;15.470;2023-05-16T07:28:30;7.20;;;4.63;;
44048;SDS011;29717;47.028;15.470;2023-05-16T07:30:57;11.93;;;6.65;;
44048;SDS011;29717;47.028;15.470;2023-05-16T07:33:25;18.85;;;8.85;;
44048;SDS011;29717;47.028;15.470;2023-05-16T07:35:52;28.80;;;13.43;;
44048;SDS011;29717;47.028;15.470;2023-05-16T07:38:19;15.75;;;9.30;;
44048;SDS011;29717;47.028;15.470;2023-05-16T07:40:46;8.57;;;6.70;;
44048;SDS011;29717;47.028;15.470;2023-05-16T07:43:13;7.32;;;5.57;;
44048;SDS011;29717;47.028;15.470;2023-05-16T07:45:41;6.57;;;4.82;;
44048;SDS011;29717;47.028;15.470;2023-05-16T07:48:08;7.45;;;5.20;;
44048;SDS011;29717;47.028;15.470;2023-05-16T07:50:35;5.72;;;5.00;;
44048;SDS011;29717;47.028;15.470;2023-05-16T07:53:02;5.70;;;5.07;;
44048;SDS011;29717;47.028;15.470;2023-05-16T07:55:29;6.82;;;5.30;;
44048;SDS011;29717;47.028;15.470;2023-05-16T07:57:56;7.97;;;5.35;;
44048;SDS011;29717;47.028;15.470;2023-05-16T08:00:22;6.60;;;4.85;;
44048;SDS011;29717;47.028;15.470;2023-05-16T08:02:51;10.65;;;5.90;;
44048;SDS011;29717;47.028;15.470;2023-05-16T08:05:18;7.18;;;5.80;;
44048;SDS011;29717;47.028;15.470;2023-05-16T08:07:45;10.00;;;5.65;;
44048;SDS011;29717;47.028;15.470;2023-05-16T08:10:12;10.05;;;6.25;;
44048;SDS011;29717;47.028;15.470;2023-05-16T08:12:39;9.25;;;6.03;;
44048;SDS011;29717;47.028;15.470;2023-05-16T08:15:06;9.93;;;6.28;;
44048;SDS011;29717;47.028;15.470;2023-05-16T08:17:33;7.07;;;5.78;;
44048;SDS011;29717;47.028;15.470;2023-05-16T08:20:01;6.68;;;5.72;;
44048;SDS011;29717;47.028;15.470;2023-05-16T08:22:30;6.93;;;5.78;;
44048;SDS011;29717;47.028;15.470;2023-05-16T08:24:57;7.35;;;4.97;;
44048;SDS011;29717;47.028;15.470;2023-05-16T08:27:24;6.03;;;5.28;;
44048;SDS011;29717;47.028;15.470;2023-05-16T08:29:51;9.20;;;5.25;;
44048;SDS011;29717;47.028;15.470;2023-05-16T08:32:18;6.97;;;5.65;;
44048;SDS011;29717;47.028;15.470;2023-05-16T08:34:45;8.88;;;5.13;;
44048;SDS011;29717;47.028;15.470;2023-05-16T08:37:13;5.80;;;5.20;;
44048;SDS011;29717;47.028;15.470;2023-05-16T08:39:40;5.82;;;5.22;;
44048;SDS011;29717;47.028;15.470;2023-05-16T08:42:07;6.40;;;5.80;;
44048;SDS011;29717;47.028;15.470;2023-05-16T08:44:34;6.50;;;5.32;;
44048;SDS011;29717;47.028;15.470;2023-05-16T08:47:03;7.70;;;6.60;;
44048;SDS011;29717;47.028;15.470;2023-05-16T08:49:32;9.32;;;7.03;;
44048;SDS011;29717;47.028;15.470;2023-05-16T08:52:00;7.10;;;6.00;;
44048;SDS011;29717;47.028;15.470;2023-05-16T08:54:29;9.35;;;6.80;;
44048;SDS011;29717;47.028;15.470;2023-05-16T08:56:57;7.65;;;6.28;;
44048;SDS011;29717;47.028;15.470;2023-05-16T08:59:25;7.13;;;6.32;;
44048;SDS011;29717;47.028;15.470;2023-05-16T09:01:52;10.07;;;6.45;;
44048;SDS011;29717;47.028;15.470;2023-05-16T09:04:18;8.15;;;5.88;;
44048;SDS011;29717;47.028;15.470;2023-05-16T09:06:46;6.43;;;5.82;;
44048;SDS011;29717;47.028;15.470;2023-05-16T09:09:13;6.55;;;5.95;;
44048;SDS011;29717;47.028;15.470;2023-05-16T09:11:43;8.05;;;5.97;;
44048;SDS011;29717;47.028;15.470;2023-05-16T09:14:09;7.05;;;5.97;;
44048;SDS011;29717;47.028;15.470;2023-05-16T09:16:36;6.30;;;5.70;;
44048;SDS011;29717;47.028;15.470;2023-05-16T09:19:04;6.90;;;5.80;;
44048;SDS011;29717;47.028;15.470;2023-05-16T09:21:31;6.55;;;5.90;;
44048;SDS011;29717;47.028;15.470;2023-05-16T09:24:01;9.05;;;5.95;;
44048;SDS011;29717;47.028;15.470;2023-05-16T09:26:29;6.93;;;5.75;;
44048;SDS011;29717;47.028;15.470;2023-05-16T09:28:57;7.43;;;6.25;;
44048;SDS011;29717;47.028;15.470;2023-05-16T09:31:25;6.15;;;5.43;;
44048;SDS011;29717;47.028;15.470;2023-05-16T09:33:52;6.13;;;4.95;;
44048;SDS011;29717;47.028;15.470;2023-05-16T09:36:19;6.35;;;5.25;;
44048;SDS011;29717;47.028;15.470;2023-05-16T09:38:46;5.70;;;4.88;;
44048;SDS011;29717;47.028;15.470;2023-05-16T09:41:13;7.25;;;5.10;;
44048;SDS011;29717;47.028;15.470;2023-05-16T09:43:40;5.18;;;4.68;;
44048;SDS011;29717;47.028;15.470;2023-05-16T09:46:10;6.40;;;5.20;;
44048;SDS011;29717;47.028;15.470;2023-05-16T09:48:39;5.80;;;5.20;;
44048;SDS011;29717;47.028;15.470;2023-05-16T09:51:07;5.47;;;4.97;;
44048;SDS011;29717;47.028;15.470;2023-05-16T09:53:34;5.55;;;5.03;;
44048;SDS011;29717;47.028;15.470;2023-05-16T09:56:03;4.97;;;4.57;;
44048;SDS011;29717;47.028;15.470;2023-05-16T09:58:31;6.28;;;4.57;;
44048;SDS011;29717;47.028;15.470;2023-05-16T10:00:58;5.30;;;4.32;;
44048;SDS011;29717;47.028;15.470;2023-05-16T10:03:27;5.15;;;4.65;;
44048;SDS011;29717;47.028;15.470;2023-05-16T10:05:54;4.72;;;4.32;;
44048;SDS011;29717;47.028;15.470;2023-05-16T10:08:21;5.53;;;4.90;;
44048;SDS011;29717;47.028;15.470;2023-05-16T10:10:50;5.55;;;4.85;;
44048;SDS011;29717;47.028;15.470;2023-05-16T10:13:17;5.28;;;4.70;;
44048;SDS011;29717;47.028;15.470;2023-05-16T10:15:45;6.57;;;4.88;;
44048;SDS011;29717;47.028;15.470;2023-05-16T10:18:12;7.45;;;5.22;;
44048;SDS011;29717;47.028;15.470;2023-05-16T10:20:41;5.60;;;5.07;;
44048;SDS011;29717;47.028;15.470;2023-05-16T10:23:09;4.68;;;4.28;;
44048;SDS011;29717;47.028;15.470;2023-05-16T10:25:39;5.97;;;5.28;;
44048;SDS011;29717;47.028;15.470;2023-05-16T10:28:08;5.63;;;4.55;;
44048;SDS011;29717;47.028;15.470;2023-05-16T10:30:35;5.75;;;4.70;;
44048;SDS011;29717;47.028;15.470;2023-05-16T10:33:02;5.97;;;4.88;;
44048;SDS011;29717;47.028;15.470;2023-05-16T10:35:30;6.75;;;5.15;;
44048;SDS011;29717;47.028;15.470;2023-05-16T10:37:58;5.50;;;4.88;;
44048;SDS011;29717;47.028;15.470;2023-05-16T10:40:26;5.75;;;4.57;;
44048;SDS011;29717;47.028;15.470;2023-05-16T10:42:54;5.22;;;4.47;;
44048;SDS011;29717;47.028;15.470;2023-05-16T10:45:22;5.38;;;4.32;;
44048;SDS011;29717;47.028;15.470;2023-05-16T10:47:52;5.22;;;4.65;;
44048;SDS011;29717;47.028;15.470;2023-05-16T10:50:32;4.75;;;4.35;;
44048;SDS011;29717;47.028;15.470;2023-05-16T10:53:12;5.15;;;4.68;;
44048;SDS011;29717;47.028;15.470;2023-05-16T10:55:39;6.10;;;4.80;;
44048;SDS011;29717;47.028;15.470;2023-05-16T10:58:06;5.72;;;4.70;;
44048;SDS011;29717;47.028;15.470;2023-05-16T11:00:33;5.82;;;4.50;;
44048;SDS011;29717;47.028;15.470;2023-05-16T11:03:03;5.50;;;5.00;;
44048;SDS011;29717;47.028;15.470;2023-05-16T11:05:30;6.07;;;4.53;;
44048;SDS011;29717;47.028;15.470;2023-05-16T11:08:04;5.47;;;4.97;;
44048;SDS011;29717;47.028;15.470;2023-05-16T11:10:32;7.70;;;5.07;;
44048;SDS011;29717;47.028;15.470;2023-05-16T11:13:01;5.40;;;4.90;;
44048;SDS011;29717;47.028;15.470;2023-05-16T11:15:30;5.30;;;4.80;;
44048;SDS011;29717;47.028;15.470;2023-05-16T11:18:05;5.30;;;4.78;;
44048;SDS011;29717;47.028;15.470;2023-05-16T11:20:33;5.30;;;4.60;;
44048;SDS011;29717;47.028;15.470;2023-05-16T11:23:22;6.10;;;4.82;;
44048;SDS011;29717;47.028;15.470;2023-05-16T11:25:54;5.78;;;4.68;;
44048;SDS011;29717;47.028;15.470;2023-05-16T11:28:23;4.65;;;4.25;;
44048;SDS011;29717;47.028;15.470;2023-05-16T11:30:50;5.53;;;4.75;;
44048;SDS011;29717;47.028;15.470;2023-05-16T11:33:19;4.95;;;4.43;;
44048;SDS011;29717;47.028;15.470;2023-05-16T11:35:58;6.40;;;4.85;;
44048;SDS011;29717;47.028;15.470;2023-05-16T11:38:25;6.00;;;4.32;;
44048;SDS011;29717;47.028;15.470;2023-05-16T11:40:54;5.20;;;4.70;;
44048;SDS011;29717;47.028;15.470;2023-05-16T11:43:27;6.25;;;4.63;;
44048;SDS011;29717;47.028;15.470;2023-05-16T11:45:54;4.90;;;4.50;;
44048;SDS011;29717;47.028;15.470;2023-05-16T11:48:22;4.28;;;3.88;;
44048;SDS011;29717;47.028;15.470;2023-05-16T11:50:49;4.38;;;3.97;;
44048;SDS011;29717;47.028;15.470;2023-05-16T11:53:17;6.07;;;3.88;;
44048;SDS011;29717;47.028;15.470;2023-05-16T11:55:46;4.30;;;3.90;;
44048;SDS011;29717;47.028;15.470;2023-05-16T11:58:18;4.18;;;3.78;;
44048;SDS011;29717;47.028;15.470;2023-05-16T12:00:49;4.80;;;3.88;;
44048;SDS011;29717;47.028;15.470;2023-05-16T12:03:17;4.55;;;3.47;;
44048;SDS011;29717;47.028;15.470;2023-05-16T12:05:50;4.20;;;3.80;;
44048;SDS011;29717;47.028;15.470;2023-05-16T12:08:18;3.78;;;3.47;;
44048;SDS011;29717;47.028;15.470;2023-05-16T12:10:47;3.45;;;3.15;;
44048;SDS011;29717;47.028;15.470;2023-05-16T12:13:14;5.40;;;3.33;;
44048;SDS011;29717;47.028;15.470;2023-05-16T12:15:43;3.72;;;3.42;;
44048;SDS011;29717;47.028;15.470;2023-05-16T12:18:09;4.43;;;3.53;;
44048;SDS011;29717;47.028;15.470;2023-05-16T12:20:36;3.47;;;3.17;;
44048;SDS011;29717;47.028;15.470;2023-05-16T12:23:04;3.22;;;3.00;;
44048;SDS011;29717;47.028;15.470;2023-05-16T12:25:36;3.75;;;3.45;;
44048;SDS011;29717;47.028;15.470;2023-05-16T12:28:06;3.63;;;3.33;;
44048;SDS011;29717;47.028;15.470;2023-05-16T12:30:34;3.60;;;2.83;;
44048;SDS011;29717;47.028;15.470;2023-05-16T12:33:03;2.90;;;2.70;;
44048;SDS011;29717;47.028;15.470;2023-05-16T12:35:34;4.22;;;2.78;;
44048;SDS011;29717;47.028;15.470;2023-05-16T12:38:02;3.35;;;3.05;;
44048;SDS011;29717;47.028;15.470;2023-05-16T12:40:29;3.58;;;3.03;;
44048;SDS011;29717;47.028;15.470;2023-05-16T12:42:56;3.30;;;2.70;;
44048;SDS011;29717;47.028;15.470;2023-05-16T12:45:23;3.42;;;2.75;;
44048;SDS011;29717;47.028;15.470;2023-05-16T12:47:52;2.80;;;2.50;;
44048;SDS011;29717;47.028;15.470;2023-05-16T12:50:26;3.17;;;2.60;;
44048;SDS011;29717;47.028;15.470;2023-05-16T12:52:53;3.30;;;2.65;;
44048;SDS011;29717;47.028;15.470;2023-05-16T12:55:21;2.65;;;2.45;;
44048;SDS011;29717;47.028;15.470;2023-05-16T12:57:50;2.55;;;2.25;;
44048;SDS011;29717;47.028;15.470;2023-05-16T13:00:19;2.67;;;2.20;;
44048;SDS011;29717;47.028;15.470;2023-05-16T13:02:46;2.70;;;2.50;;
44048;SDS011;29717;47.028;15.470;2023-05-16T13:05:19;3.42;;;2.30;;
44048;SDS011;29717;47.028;15.470;2023-05-16T13:07:49;2.92;;;2.67;;
44048;SDS011;29717;47.028;15.470;2023-05-16T13:10:16;2.55;;;2.35;;
44048;SDS011;29717;47.028;15.470;2023-05-16T13:12:43;2.85;;;2.63;;
44048;SDS011;29717;47.028;15.470;2023-05-16T13:15:11;4.38;;;2.90;;
44048;SDS011;29717;47.028;15.470;2023-05-16T13:17:39;2.97;;;2.70;;
44048;SDS011;29717;47.028;15.470;2023-05-16T13:20:06;3.00;;;2.40;;
44048;SDS011;29717;47.028;15.470;2023-05-16T13:22:34;2.58;;;2.30;;
44048;SDS011;29717;47.028;15.470;2023-05-16T13:25:02;2.58;;;2.38;;
44048;SDS011;29717;47.028;15.470;2023-05-16T13:27:30;4.45;;;2.20;;
44048;SDS011;29717;47.028;15.470;2023-05-16T13:29:57;2.05;;;1.85;;
44048;SDS011;29717;47.028;15.470;2023-05-16T13:32:24;3.72;;;2.05;;
44048;SDS011;29717;47.028;15.470;2023-05-16T13:34:51;4.35;;;1.92;;
44048;SDS011;29717;47.028;15.470;2023-05-16T13:37:18;2.10;;;1.90;;
44048;SDS011;29717;47.028;15.470;2023-05-16T13:39:45;2.22;;;1.73;;
44048;SDS011;29717;47.028;15.470;2023-05-16T13:42:13;2.40;;;2.20;;
44048;SDS011;29717;47.028;15.470;2023-05-16T13:44:40;2.50;;;2.30;;
44048;SDS011;29717;47.028;15.470;2023-05-16T13:47:09;3.75;;;3.38;;
44048;SDS011;29717;47.028;15.470;2023-05-16T13:49:36;2.90;;;2.70;;
44048;SDS011;29717;47.028;15.470;2023-05-16T13:52:05;2.50;;;2.30;;
44048;SDS011;29717;47.028;15.470;2023-05-16T13:54:32;2.22;;;2.03;;
44048;SDS011;29717;47.028;15.470;2023-05-16T13:56:59;3.25;;;2.13;;
44048;SDS011;29717;47.028;15.470;2023-05-16T13:59:29;2.25;;;2.10;;
44048;SDS011;29717;47.028;15.470;2023-05-16T14:01:56;2.65;;;2.08;;
44048;SDS011;29717;47.028;15.470;2023-05-16T14:04:23;2.55;;;2.30;;
44048;SDS011;29717;47.028;15.470;2023-05-16T14:06:51;3.30;;;2.10;;
44048;SDS011;29717;47.028;15.470;2023-05-16T14:09:18;2.47;;;2.28;;
44048;SDS011;29717;47.028;15.470;2023-05-16T14:11:45;2.80;;;2.10;;
44048;SDS011;29717;47.028;15.470;2023-05-16T14:14:12;2.30;;;2.10;;
44048;SDS011;29717;47.028;15.470;2023-05-16T14:16:40;3.17;;;2.03;;
44048;SDS011;29717;47.028;15.470;2023-05-16T14:19:09;2.75;;;2.20;;
44048;SDS011;29717;47.028;15.470;2023-05-16T14:21:36;4.25;;;2.30;;
44048;SDS011;29717;47.028;15.470;2023-05-16T14:24:03;4.93;;;2.53;;
44048;SDS011;29717;47.028;15.470;2023-05-16T14:26:30;2.67;;;2.38;;
44048;SDS011;29717;47.028;15.470;2023-05-16T14:28:57;2.88;;;2.58;;
44048;SDS011;29717;47.028;15.470;2023-05-16T14:31:23;3.20;;;2.67;;
44048;SDS011;29717;47.028;15.470;2023-05-16T14:33:52;3.30;;;2.97;;
44048;SDS011;29717;47.028;15.470;2023-05-16T14:36:18;3.60;;;3.30;;
44048;SDS011;29717;47.028;15.470;2023-05-16T14:38:45;3.28;;;3.08;;
44048;SDS011;29717;47.028;15.470;2023-05-16T14:41:13;3.20;;;2.90;;
44048;SDS011;29717;47.028;15.470;2023-05-16T14:43:40;4.53;;;2.83;;
44048;SDS011;29717;47.028;15.470;2023-05-16T14:46:06;3.35;;;3.00;;
44048;SDS011;29717;47.028;15.470;2023-05-16T14:48:33;4.47;;;2.83;;